LEAL Airport Information

Runway Information
Runway 10 Length 9842 ft width 148 ft
Elevation 142 ft Threshold 0 ft Heading 100
Runway 28 Length 9842 ft Width 148 ft
Elevation 44 ft Threshold 0 ft Heading 280
Airport Frequencies
Type APP Name APP Frequency 118.8 MHZ
Type ATIS Name ATIS Frequency 113.8 MHZ
Type GND Name GND Frequency 121.7 MHZ
Type TWR Name TWR Frequency 118.15 MHZ
Airport Navaids
Type VOR-DME Name Alicante Frequency 113800 KHZ
Type VOR-DME Name Alicante Frequency 114650 KHZ
Airport Weather Information & NOTAM
ADDS - METARS form results

(1540 UTC 25 June 2018)
 
METAR text: LEAL 251530Z 11008KT 070V160 9999 FEW015 27/21 Q1015 NOSIG
Conditions at: LEAL (ALICANTE/EL ALTE, ES) observed 1530 UTC 25 June 2018
Temperature: 27.0°C (81°F)
Dewpoint: 21.0°C (70°F) [RH = 70%]
Pressure (altimeter): 29.97 inches Hg (1015.0 mb)
Winds: from the ESE (110 degrees) at 9 MPH (8 knots; 4.2 m/s)
Visibility: 6 or more miles (10+ km)
Ceiling: at least 12,000 feet AGL
Clouds: few clouds at 1500 feet AGL
Weather: no significant weather observed at this time

METAR text: LEAL 251500Z 10009KT 070V150 9999 FEW015 27/20 Q1016 NOSIG
Conditions at: LEAL (ALICANTE/EL ALTE, ES) observed 1500 UTC 25 June 2018
Temperature: 27.0°C (81°F)
Dewpoint: 20.0°C (68°F) [RH = 66%]
Pressure (altimeter): 30.00 inches Hg (1016.0 mb)
Winds: from the E (100 degrees) at 10 MPH (9 knots; 4.7 m/s)
Visibility: 6 or more miles (10+ km)
Ceiling: at least 12,000 feet AGL
Clouds: few clouds at 1500 feet AGL
Weather: no significant weather observed at this time